Time;durP1;ratioP1;P1;durP2;ratioP2;P2;SDS_P1;SDS_P2;PMS_P1;PMS_P2;Temp;Humidity;BMP_temperature;BMP_pressure;BME280_temperature;BME280_humidity;BME280_pressure;Samples;Min_cycle;Max_cycle;Signal;HPM_P1;HPM_P2
2022/03/12 00:02:19;;;;;;;23.83;13.60;;;;;;;9.42;40.65;101216.91;5032649;28;20022;-57
2022/03/12 00:04:45;;;;;;;22.65;13.55;;;;;;;9.41;41.10;101216.09;5032440;28;20025;-57
2022/03/12 00:07:12;;;;;;;21.13;13.57;;;;;;;9.45;40.62;101221.09;5033234;28;20549;-58
2022/03/12 00:09:38;;;;;;;22.85;14.13;;;;;;;9.41;40.74;101220.53;5032825;28;20112;-57
2022/03/12 00:12:04;;;;;;;21.60;13.85;;;;;;;9.40;40.79;101226.81;5033539;28;20026;-57
2022/03/12 00:14:31;;;;;;;25.67;14.60;;;;;;;9.40;40.88;101226.81;5030798;28;20021;-55
2022/03/12 00:16:56;;;;;;;24.88;14.13;;;;;;;9.40;41.57;101230.31;5035259;28;20465;-57
2022/03/12 00:19:22;;;;;;;24.85;14.05;;;;;;;9.40;41.86;101229.47;5036677;28;20044;-57
2022/03/12 00:21:49;;;;;;;22.25;13.75;;;;;;;9.40;41.16;101224.19;5032914;28;20037;-56
2022/03/12 00:24:15;;;;;;;24.10;14.38;;;;;;;9.39;41.80;101228.63;5032259;28;20446;-57
2022/03/12 00:26:43;;;;;;;23.85;14.18;;;;;;;9.40;41.29;101229.47;5034592;28;20030;-57
2022/03/12 00:29:14;;;;;;;21.60;13.57;;;;;;;9.39;41.85;101233.91;5038277;28;20029;-57
2022/03/12 00:31:45;;;;;;;21.80;13.85;;;;;;;9.39;41.80;101235.75;5033427;28;20060;-57
2022/03/12 00:34:11;;;;;;;26.95;14.60;;;;;;;9.38;41.94;101237.53;5032241;28;20036;-57
2022/03/12 00:36:36;;;;;;;22.55;14.02;;;;;;;9.40;42.30;101240.91;5031146;28;20029;-57
2022/03/12 00:39:03;;;;;;;23.30;13.57;;;;;;;9.41;42.20;101244.38;5031589;28;20388;-57
2022/03/12 00:41:29;;;;;;;25.77;14.57;;;;;;;9.41;41.93;101252.31;5032711;28;20034;-57
2022/03/12 00:43:54;;;;;;;24.73;14.23;;;;;;;9.43;42.33;101255.66;5032081;28;20037;-57
2022/03/12 00:46:20;;;;;;;24.60;13.90;;;;;;;9.42;42.60;101251.31;5032633;28;20468;-56
2022/03/12 00:48:45;;;;;;;23.90;14.48;;;;;;;9.42;43.27;101253.97;5032725;28;20084;-56
2022/03/12 00:51:11;;;;;;;21.80;13.82;;;;;;;9.41;43.47;101254.97;5032552;28;20048;-57
2022/03/12 00:53:39;;;;;;;24.50;13.50;;;;;;;9.39;43.82;101248.97;5026631;28;20057;-57
2022/03/12 00:56:05;;;;;;;22.83;13.55;;;;;;;9.39;44.57;101254.28;5032322;28;20025;-57
2022/03/12 00:58:30;;;;;;;22.48;13.77;;;;;;;9.37;45.18;101257.06;5033604;28;20033;-57
2022/03/12 01:00:56;;;;;;;24.38;13.90;;;;;;;9.37;44.96;101250.94;5032296;28;20029;-57
2022/03/12 01:03:21;;;;;;;22.27;13.13;;;;;;;9.37;44.79;101253.59;5031702;28;20405;-57
2022/03/12 01:05:49;;;;;;;24.77;13.93;;;;;;;9.38;45.31;101248.13;5039709;28;20032;-56
2022/03/12 01:08:17;;;;;;;23.67;13.95;;;;;;;9.33;44.60;101245.09;5031466;28;20439;-57
2022/03/12 01:10:44;;;;;;;22.77;13.98;;;;;;;9.33;45.67;101244.25;5032155;28;20637;-57
2022/03/12 01:13:11;;;;;;;23.35;13.90;;;;;;;9.35;45.35;101253.72;5031061;28;20029;-57
2022/03/12 01:15:36;;;;;;;23.23;14.50;;;;;;;9.33;45.56;101249.56;5032039;28;20029;-56
2022/03/12 01:18:02;;;;;;;22.83;13.85;;;;;;;9.34;45.65;101253.88;5031337;28;20431;-56
2022/03/12 01:20:27;;;;;;;23.73;14.10;;;;;;;9.35;46.67;101259.03;5031502;28;20053;-57
2022/03/12 01:22:53;;;;;;;23.88;14.30;;;;;;;9.34;47.67;101267.09;5030214;28;20106;-57
2022/03/12 01:25:19;;;;;;;23.40;14.43;;;;;;;9.32;48.38;101258.47;5031493;28;20385;-57
2022/03/12 01:27:45;;;;;;;24.23;14.38;;;;;;;9.27;48.42;101257.09;5039231;28;20028;-57
2022/03/12 01:30:10;;;;;;;24.75;14.48;;;;;;;9.27;49.69;101262.38;5030956;28;20384;-57
2022/03/12 01:32:36;;;;;;;21.85;14.38;;;;;;;9.23;49.99;101270.75;5031888;28;20032;-57
2022/03/12 01:35:03;;;;;;;24.95;14.85;;;;;;;9.19;50.53;101270.22;5029650;28;20040;-56
2022/03/12 01:37:28;;;;;;;25.23;14.90;;;;;;;9.14;52.07;101277.72;5031442;28;20124;-56
2022/03/12 01:39:54;;;;;;;22.05;14.38;;;;;;;9.09;53.27;101275.47;5031040;28;20160;-56
2022/03/12 01:42:21;;;;;;;24.27;14.82;;;;;;;9.06;51.98;101280.22;5030510;28;20395;-56
2022/03/12 01:44:46;;;;;;;24.02;14.40;;;;;;;9.00;54.28;101274.53;5031485;28;20048;-57
2022/03/12 01:47:11;;;;;;;25.13;15.18;;;;;;;8.92;54.89;101279.69;5032265;28;20503;-57
2022/03/12 01:49:37;;;;;;;23.05;15.32;;;;;;;8.91;55.13;101287.75;5029876;28;20037;-57
2022/03/12 01:52:04;;;;;;;23.70;15.27;;;;;;;8.80;55.52;101270.22;5030600;28;20056;-56
2022/03/12 01:54:30;;;;;;;24.63;15.35;;;;;;;8.82;56.20;101273.53;5030049;28;20051;-56
2022/03/12 01:56:58;;;;;;;30.58;16.30;;;;;;;8.74;57.35;101272.44;5030413;28;20545;-56
2022/03/12 01:59:23;;;;;;;25.58;15.70;;;;;;;8.73;57.39;101268.13;5031282;28;20087;-56
2022/03/12 02:01:51;;;;;;;24.08;14.95;;;;;;;8.69;57.46;101274.66;5031756;28;20445;-57
2022/03/12 02:04:19;;;;;;;24.33;15.20;;;;;;;8.64;57.37;101268.13;5032017;28;20029;-57
2022/03/12 02:06:46;;;;;;;25.35;15.35;;;;;;;8.68;57.97;101269.53;5030936;28;20429;-56
2022/03/12 02:09:14;;;;;;;26.00;14.82;;;;;;;8.69;56.64;101274.66;5026176;28;20045;-56
2022/03/12 02:11:41;;;;;;;25.67;15.90;;;;;;;8.69;56.58;101269.38;5036096;28;20029;-56
2022/03/12 02:14:12;;;;;;;25.35;15.52;;;;;;;8.65;57.99;101260.06;5031080;28;20045;-56
2022/03/12 02:16:44;;;;;;;26.08;15.38;;;;;;;8.67;56.72;101267.84;5031464;28;20034;-57
2022/03/12 02:19:09;;;;;;;23.52;14.50;;;;;;;8.69;56.43;101264.09;5031323;28;20140;-57
2022/03/12 02:21:40;;;;;;;24.92;14.15;;;;;;;8.71;55.82;101272.72;5034419;28;20136;-57
2022/03/12 02:24:14;;;;;;;24.40;14.05;;;;;;;8.75;55.86;101274.09;5033689;28;20476;-56
2022/03/12 02:26:43;;;;;;;22.73;14.90;;;;;;;8.73;55.71;101265.47;5035394;28;20432;-56
2022/03/12 02:29:10;;;;;;;23.30;14.38;;;;;;;8.76;55.39;101274.94;5034571;28;20072;-57
2022/03/12 02:31:37;;;;;;;23.45;14.25;;;;;;;8.72;57.54;101263.81;5034555;28;20109;-56
2022/03/12 02:34:04;;;;;;;20.88;14.07;;;;;;;8.75;57.17;101275.94;5034657;28;20041;-57
2022/03/12 02:36:29;;;;;;;22.48;13.90;;;;;;;8.74;56.58;101272.44;5033238;28;20408;-57
2022/03/12 02:38:55;;;;;;;21.65;13.57;;;;;;;8.77;56.56;101287.19;5027062;28;20063;-56
2022/03/12 02:41:23;;;;;;;21.60;13.82;;;;;;;8.75;56.17;101283.88;5033299;28;20032;-57
2022/03/12 02:43:48;;;;;;;22.77;14.43;;;;;;;8.77;57.45;101273.97;5034477;28;20040;-56
2022/03/12 02:46:14;;;;;;;21.58;14.27;;;;;;;8.80;57.47;101286.09;5034047;28;20060;-57
2022/03/12 02:48:40;;;;;;;22.08;13.80;;;;;;;8.78;56.98;101293.34;5032892;28;20384;-56
2022/03/12 02:51:07;;;;;;;21.80;14.05;;;;;;;8.78;57.78;101293.34;5034083;28;20042;-56
2022/03/12 02:53:33;;;;;;;22.77;13.80;;;;;;;8.77;57.50;101295.13;5027318;28;20029;-56
2022/03/12 02:55:58;;;;;;;21.38;13.48;;;;;;;8.75;56.34;101294.44;5033649;28;20488;-56
2022/03/12 02:58:24;;;;;;;21.73;14.82;;;;;;;8.77;55.97;101299.59;5034238;28;20026;-56
2022/03/12 03:00:49;;;;;;;22.95;14.57;;;;;;;8.74;56.57;101298.06;5027739;28;20449;-56
2022/03/12 03:03:15;;;;;;;23.30;14.65;;;;;;;8.72;57.06;101306.13;5029766;28;20056;-57
2022/03/12 03:05:45;;;;;;;23.45;14.65;;;;;;;8.69;57.20;101306.38;5028813;28;20022;-57
2022/03/12 03:08:18;;;;;;;22.00;14.15;;;;;;;8.69;56.58;101295.81;5033212;28;20055;-56
2022/03/12 03:10:46;;;;;;;23.58;14.93;;;;;;;8.68;56.68;101290.69;5032736;28;20036;-57
2022/03/12 03:13:18;;;;;;;26.88;14.65;;;;;;;8.61;57.68;101296.53;5032987;28;20025;-57
2022/03/12 03:15:49;;;;;;;22.25;14.32;;;;;;;8.59;57.43;101305.56;5033797;28;20037;-57
2022/03/12 03:18:16;;;;;;;22.48;14.13;;;;;;;8.54;56.90;101310.41;5033868;28;20528;-57
2022/03/12 03:20:45;;;;;;;24.75;14.30;;;;;;;8.47;57.63;101313.56;5033846;28;20026;-56
2022/03/12 03:23:10;;;;;;;24.40;14.35;;;;;;;8.43;57.92;101312.16;5033511;28;20064;-57
2022/03/12 03:25:36;;;;;;;24.27;13.93;;;;;;;8.39;58.85;101310.75;5033242;28;20431;-57
2022/03/12 03:28:03;;;;;;;22.45;14.13;;;;;;;8.35;59.90;101304.09;5033803;28;20029;-57
2022/03/12 03:30:36;;;;;;;20.60;13.43;;;;;;;8.34;60.21;101313.00;5033866;28;20030;-57
2022/03/12 03:33:04;;;;;;;22.50;13.15;;;;;;;8.32;60.84;101314.91;5033236;28;20153;-56
2022/03/12 03:35:29;;;;;;;19.98;12.82;;;;;;;8.30;61.83;101314.22;5032826;28;20030;-57
2022/03/12 03:37:54;;;;;;;21.77;13.00;;;;;;;8.30;62.75;101322.16;5033594;28;20030;-56
2022/03/12 03:40:20;;;;;;;18.52;12.18;;;;;;;8.25;63.66;101319.06;5033463;28;20112;-56
2022/03/12 03:42:45;;;;;;;20.77;11.93;;;;;;;8.22;63.86;101320.16;5033318;28;20057;-56
2022/03/12 03:45:22;;;;;;;21.70;12.57;;;;;;;8.19;64.07;101316.00;5031122;28;20584;-57
2022/03/12 03:47:49;;;;;;;20.13;12.32;;;;;;;8.21;64.21;101323.78;5034039;28;20041;-56
2022/03/12 03:50:14;;;;;;;19.23;12.23;;;;;;;8.20;63.93;101317.66;5032905;28;20040;-56
2022/03/12 03:52:40;;;;;;;20.80;12.77;;;;;;;8.18;63.78;101327.53;5032948;28;20033;-56
2022/03/12 03:55:06;;;;;;;19.23;12.32;;;;;;;8.12;64.23;101320.13;5033442;28;20032;-56
2022/03/12 03:57:31;;;;;;;19.25;11.90;;;;;;;8.12;64.65;101335.13;5017583;28;20029;-57
2022/03/12 03:59:56;;;;;;;20.50;12.77;;;;;;;8.07;65.53;101330.28;5033487;28;20022;-56
2022/03/12 04:02:22;;;;;;;19.77;12.30;;;;;;;8.05;65.67;101335.69;5032274;28;20392;-56
2022/03/12 04:04:48;;;;;;;19.15;11.68;;;;;;;8.03;65.76;101336.78;5033224;28;20041;-56
2022/03/12 04:07:14;;;;;;;18.05;11.57;;;;;;;8.01;66.12;101342.22;5032843;28;20079;-57
2022/03/12 04:09:39;;;;;;;18.00;12.30;;;;;;;7.98;67.09;101339.00;5033264;28;20029;-57
2022/03/12 04:12:05;;;;;;;18.40;11.48;;;;;;;7.94;66.83;101339.25;5032655;28;20044;-57
2022/03/12 04:14:30;;;;;;;17.23;10.80;;;;;;;7.91;67.82;101344.78;5033053;28;20460;-56
2022/03/12 04:16:58;;;;;;;20.30;11.57;;;;;;;7.89;67.74;101344.09;5033068;28;20076;-56
2022/03/12 04:19:29;;;;;;;15.77;10.18;;;;;;;7.89;68.37;101351.19;5032454;28;20047;-57
2022/03/12 04:21:57;;;;;;;14.43;9.85;;;;;;;7.89;68.81;101354.66;5032443;28;20049;-56
2022/03/12 04:24:25;;;;;;;16.75;10.13;;;;;;;7.88;69.04;101352.97;5033321;28;20033;-55
2022/03/12 04:26:51;;;;;;;14.93;9.15;;;;;;;7.88;69.68;101355.63;5033111;28;20026;-55
2022/03/12 04:29:18;;;;;;;15.35;9.43;;;;;;;7.85;69.67;101353.22;5032463;28;20091;-57
2022/03/12 04:31:43;;;;;;;14.60;9.10;;;;;;;7.82;70.58;101356.16;5032039;28;20063;-57
2022/03/12 04:34:08;;;;;;;15.68;9.45;;;;;;;7.80;70.66;101353.63;5032109;28;20022;-57
2022/03/12 04:36:36;;;;;;;14.02;8.93;;;;;;;7.79;70.80;101361.66;5031476;28;20507;-56
2022/03/12 04:39:03;;;;;;;13.77;9.15;;;;;;;7.73;71.28;101351.63;5030963;28;20560;-56
2022/03/12 04:41:34;;;;;;;14.02;8.93;;;;;;;7.73;70.94;101360.41;5032715;28;20021;-56
2022/03/12 04:44:00;;;;;;;14.07;9.13;;;;;;;7.72;71.84;101360.53;5032290;28;20026;-56
2022/03/12 04:46:25;;;;;;;14.15;8.77;;;;;;;7.70;71.87;101359.81;5032275;28;20048;-56
2022/03/12 04:48:51;;;;;;;11.73;8.07;;;;;;;7.70;72.31;101359.81;5031678;28;20026;-55
2022/03/12 04:51:16;;;;;;;13.02;8.90;;;;;;;7.70;72.42;101362.47;5032455;28;20045;-56
2022/03/12 04:53:41;;;;;;;13.88;9.02;;;;;;;7.65;73.36;101353.13;5031731;28;20468;-58
2022/03/12 04:56:07;;;;;;;13.48;9.02;;;;;;;7.65;73.59;101361.03;5032560;28;20048;-55
2022/03/12 04:58:32;;;;;;;12.55;8.07;;;;;;;7.64;73.82;101369.94;5031736;28;20156;-57
2022/03/12 05:00:58;;;;;;;17.05;8.52;;;;;;;7.63;73.80;101368.25;5027481;28;20030;-57
2022/03/12 05:03:24;;;;;;;11.13;8.07;;;;;;;7.64;73.72;101366.44;5031141;28;20037;-57
2022/03/12 05:05:50;;;;;;;13.38;8.90;;;;;;;7.63;73.88;101373.53;5031261;28;20052;-56
2022/03/12 05:08:17;;;;;;;11.85;8.38;;;;;;;7.55;74.63;101360.13;5031339;28;20045;-56
2022/03/12 05:10:44;;;;;;;12.63;8.40;;;;;;;7.61;74.88;101374.63;5030921;28;20034;-56
2022/03/12 05:13:11;;;;;;;14.90;8.93;;;;;;;7.61;74.84;101370.19;5031569;28;20057;-57
2022/03/12 05:15:39;;;;;;;12.20;8.35;;;;;;;7.58;75.05;101372.22;5024550;28;20030;-56
2022/03/12 05:18:11;;;;;;;12.82;8.77;;;;;;;7.56;75.27;101377.66;5022014;28;20388;-56
2022/03/12 05:20:38;;;;;;;12.73;8.07;;;;;;;7.51;75.83;101380.66;5023673;28;20032;-57
2022/03/12 05:23:07;;;;;;;14.45;8.23;;;;;;;7.52;75.26;101382.38;5027767;28;20104;-56
2022/03/12 05:25:40;;;;;;;14.07;8.65;;;;;;;7.50;75.43;101388.75;5032304;28;20104;-56
2022/03/12 05:28:07;;;;;;;;;;;;;;;7.60;72.66;101392.25;5031995;28;20030;-57
2022/03/12 05:30:32;;;;;;;14.27;8.90;;;;;;;7.46;75.24;101395.22;5032182;28;19945;-57
2022/03/12 05:32:59;;;;;;;12.63;8.23;;;;;;;7.43;75.96;101393.69;5031445;28;20036;-56
2022/03/12 05:35:24;;;;;;;12.57;8.52;;;;;;;7.40;76.22;101396.56;5032175;28;20060;-56
2022/03/12 05:37:51;;;;;;;14.23;8.88;;;;;;;7.38;76.21;101401.13;5030897;28;20468;-56
2022/03/12 05:40:21;;;;;;;13.35;8.40;;;;;;;7.33;76.45;101409.44;5031549;28;20092;-57
2022/03/12 05:42:47;;;;;;;13.23;8.70;;;;;;;7.32;76.10;101407.75;5028705;28;20052;-56
2022/03/12 05:45:14;;;;;;;13.15;8.68;;;;;;;7.31;76.82;101410.53;5038046;28;20053;-57
2022/03/12 05:47:41;;;;;;;15.50;9.02;;;;;;;7.30;76.67;101414.94;5031986;28;20109;-56
2022/03/12 05:50:09;;;;;;;13.43;8.93;;;;;;;7.27;76.79;101413.41;5031668;28;20465;-57
2022/03/12 05:52:39;;;;;;;13.23;9.00;;;;;;;7.26;76.58;101414.34;5030764;28;20550;-56
2022/03/12 05:55:05;;;;;;;13.68;9.02;;;;;;;7.25;77.23;101419.75;5039653;28;20060;-57
2022/03/12 05:57:32;;;;;;;13.55;8.80;;;;;;;7.22;77.92;101422.66;5031566;28;20055;-57
2022/03/12 06:00:01;;;;;;;13.45;8.68;;;;;;;7.21;77.39;101421.00;5049092;28;20103;-56
2022/03/12 06:02:26;;;;;;;16.25;9.43;;;;;;;7.20;77.93;101424.59;5035412;28;20029;-57
2022/03/12 06:04:52;;;;;;;14.27;9.02;;;;;;;7.22;77.61;101422.66;5034273;28;20029;-55
2022/03/12 06:07:18;;;;;;;16.08;8.88;;;;;;;7.22;78.26;101414.75;5035366;28;20801;-56
2022/03/12 06:09:44;;;;;;;14.02;8.77;;;;;;;7.23;78.00;101419.06;5035157;28;20072;-56
2022/03/12 06:12:16;;;;;;;13.82;9.00;;;;;;;7.23;78.56;101424.31;5036259;28;20033;-57
2022/03/12 06:14:44;;;;;;;16.55;9.55;;;;;;;7.22;78.80;101420.88;5034737;28;20532;-56
2022/03/12 06:17:13;;;;;;;13.32;8.75;;;;;;;7.22;78.61;101425.28;5035591;28;20026;-55
2022/03/12 06:19:38;;;;;;;12.82;8.63;;;;;;;7.20;78.72;101425.41;5034726;28;20037;-57
2022/03/12 06:22:04;;;;;;;13.98;8.98;;;;;;;7.22;79.31;101430.56;5035252;28;20044;-57
2022/03/12 06:24:30;;;;;;;13.23;8.82;;;;;;;7.22;78.60;101433.22;5034900;28;20032;-57
2022/03/12 06:26:55;;;;;;;15.13;9.13;;;;;;;7.25;78.86;101432.94;5031073;28;20384;-57
2022/03/12 06:29:20;;;;;;;14.88;9.48;;;;;;;7.22;79.12;101434.06;5025956;28;20052;-57
2022/03/12 06:31:46;;;;;;;16.70;9.63;;;;;;;7.25;79.43;101443.50;5028035;28;20125;-57
2022/03/12 06:34:12;;;;;;;16.52;9.55;;;;;;;7.27;79.05;101444.22;5020909;28;20079;-57
2022/03/12 06:36:38;;;;;;;15.93;9.93;;;;;;;7.27;79.57;101441.59;5033967;28;20033;-57
2022/03/12 06:39:05;;;;;;;17.00;9.75;;;;;;;7.27;79.38;101442.41;5033725;28;20040;-57
2022/03/12 06:41:38;;;;;;;15.88;9.35;;;;;;;7.30;79.25;101446.59;5034695;28;20045;-57
2022/03/12 06:44:05;;;;;;;16.02;10.35;;;;;;;7.31;80.07;101447.47;5034888;28;20060;-57
2022/03/12 06:46:31;;;;;;;15.75;9.75;;;;;;;7.29;79.45;101444.94;5032507;28;20045;-57
2022/03/12 06:48:56;;;;;;;15.88;9.75;;;;;;;7.32;80.41;101455.25;5034798;28;20029;-57
2022/03/12 06:51:22;;;;;;;15.75;9.50;;;;;;;7.36;79.23;101451.38;5034699;28;20403;-55
2022/03/12 06:53:47;;;;;;;14.65;9.18;;;;;;;7.37;79.60;101458.34;5034582;28;20033;-57
2022/03/12 06:56:13;;;;;;;14.02;9.05;;;;;;;7.39;79.42;101458.22;5034736;28;20033;-57
2022/03/12 06:58:38;;;;;;;14.27;9.02;;;;;;;7.43;80.18;101461.44;5032604;28;20029;-57
2022/03/12 07:01:03;;;;;;;14.68;9.30;;;;;;;7.42;80.35;101465.88;5034385;28;20397;-57
2022/03/12 07:03:29;;;;;;;13.80;9.00;;;;;;;7.46;79.97;101463.84;5034396;28;20036;-57
2022/03/12 07:05:54;;;;;;;15.63;9.32;;;;;;;7.51;79.74;101469.59;5034334;28;20033;-57
2022/03/12 07:08:20;;;;;;;14.20;8.98;;;;;;;7.53;79.97;101470.28;5033621;28;20060;-57
2022/03/12 07:10:46;;;;;;;15.40;9.05;;;;;;;7.54;79.86;101469.31;5032702;28;20036;-57
2022/03/12 07:13:12;;;;;;;14.57;9.00;;;;;;;7.57;80.10;101469.06;5034332;28;20045;-57
2022/03/12 07:15:38;;;;;;;13.68;8.57;;;;;;;7.62;79.82;101472.19;5032270;28;20063;-56
2022/03/12 07:18:04;;;;;;;13.48;9.07;;;;;;;7.64;79.95;101480.81;5034255;28;20036;-57
2022/03/12 07:20:29;;;;;;;14.13;9.02;;;;;;;7.63;79.83;101478.28;5034255;28;20391;-57
2022/03/12 07:22:54;;;;;;;13.07;8.98;;;;;;;7.72;79.65;101488.09;5034205;28;20040;-57
2022/03/12 07:25:20;;;;;;;14.98;9.02;;;;;;;7.73;79.54;101488.91;5033907;28;20026;-57
2022/03/12 07:27:45;;;;;;;15.15;9.02;;;;;;;7.77;79.46;101485.06;5034055;28;20671;-57
2022/03/12 07:30:14;;;;;;;14.32;8.75;;;;;;;7.79;79.79;101493.69;5034326;28;20057;-57
2022/03/12 07:32:42;;;;;;;15.38;8.95;;;;;;;7.83;79.67;101489.00;5029420;28;20032;-57
2022/03/12 07:35:07;;;;;;;12.15;8.73;;;;;;;7.89;79.47;101499.88;5042059;28;20056;-57
2022/03/12 07:37:33;;;;;;;14.02;9.00;;;;;;;7.93;79.37;101501.31;5033969;28;20104;-57
2022/03/12 07:39:58;;;;;;;12.40;8.65;;;;;;;7.98;79.42;101510.66;5033564;28;20021;-56
2022/03/12 07:42:23;;;;;;;13.65;8.93;;;;;;;8.01;79.42;101513.91;5035384;28;20117;-57
2022/03/12 07:44:49;;;;;;;14.30;9.13;;;;;;;8.07;79.34;101508.09;5033566;28;20083;-57
2022/03/12 07:47:14;;;;;;;14.55;8.70;;;;;;;8.13;79.28;101517.28;5033915;28;20029;-56
2022/03/12 07:49:41;;;;;;;14.90;8.77;;;;;;;8.21;78.45;101514.84;5022652;28;20500;-57
2022/03/12 07:52:06;;;;;;;15.25;9.30;;;;;;;8.27;78.47;101517.94;5033841;28;20037;-57
2022/03/12 07:54:33;;;;;;;14.80;9.05;;;;;;;8.32;78.69;101521.03;5033275;28;20018;-57
2022/03/12 07:56:58;;;;;;;13.48;8.75;;;;;;;8.37;78.36;101518.00;5032430;28;20029;-57
2022/03/12 07:59:25;;;;;;;13.55;8.68;;;;;;;8.42;78.44;101519.28;5033249;28;20035;-57
2022/03/12 08:01:51;;;;;;;14.27;8.82;;;;;;;8.46;78.13;101523.34;5033494;28;20041;-57
2022/03/12 08:04:16;;;;;;;14.23;8.90;;;;;;;8.53;78.46;101528.16;5033412;28;20025;-58
2022/03/12 08:06:42;;;;;;;16.52;9.23;;;;;;;8.58;78.10;101528.56;5032598;28;20040;-57
2022/03/12 08:09:08;;;;;;;13.32;8.77;;;;;;;8.62;77.45;101532.63;5031537;28;20140;-58
2022/03/12 08:11:34;;;;;;;14.57;8.68;;;;;;;8.64;77.69;101536.00;5033219;28;20116;-57
2022/03/12 08:14:03;;;;;;;13.07;8.40;;;;;;;8.60;77.17;101532.75;5041308;28;20029;-57
2022/03/12 08:16:30;;;;;;;13.00;8.35;;;;;;;8.65;77.32;101537.69;5032367;28;20119;-58
2022/03/12 08:18:56;;;;;;;14.05;8.55;;;;;;;8.70;76.89;101543.41;5031523;28;20144;-57
2022/03/12 08:21:22;;;;;;;14.13;9.18;;;;;;;8.75;77.20;101538.53;5032479;28;20029;-57
2022/03/12 08:23:49;;;;;;;13.70;9.18;;;;;;;8.82;76.91;101543.28;5032330;28;20116;-57
2022/03/12 08:26:14;;;;;;;14.55;9.40;;;;;;;8.88;77.25;101553.34;5031378;28;20029;-58
2022/03/12 08:28:40;;;;;;;12.90;8.95;;;;;;;8.95;76.89;101559.81;5032360;28;20067;-57
2022/03/12 08:31:07;;;;;;;13.93;8.80;;;;;;;9.03;76.46;101561.75;5030216;28;20025;-58
2022/03/12 08:33:33;;;;;;;13.57;8.60;;;;;;;9.09;76.34;101560.41;5027198;28;20548;-57
2022/03/12 08:36:00;;;;;;;14.45;8.57;;;;;;;9.18;75.79;101562.22;5029305;28;20045;-57
2022/03/12 08:38:26;;;;;;;13.43;8.13;;;;;;;9.25;76.14;101568.69;5029283;28;20017;-57
2022/03/12 08:40:52;;;;;;;12.82;8.45;;;;;;;9.33;75.09;101567.97;5032608;28;20049;-57
2022/03/12 08:43:18;;;;;;;12.23;8.32;;;;;;;9.40;74.81;101578.88;5025981;28;20104;-57
2022/03/12 08:45:44;;;;;;;14.57;8.52;;;;;;;9.44;75.04;101579.44;5027338;28;20018;-57
2022/03/12 08:48:10;;;;;;;15.88;8.75;;;;;;;9.47;74.92;101574.72;5029526;28;20105;-57
2022/03/12 08:50:35;;;;;;;14.88;8.52;;;;;;;9.55;75.26;101576.69;5032300;28;20096;-57
2022/03/12 08:53:00;;;;;;;11.27;7.38;;;;;;;9.59;74.51;101579.91;5032442;28;20056;-56
2022/03/12 08:55:26;;;;;;;13.15;8.02;;;;;;;9.64;74.73;101586.47;5032004;28;20112;-57
2022/03/12 08:57:52;;;;;;;12.50;7.93;;;;;;;9.69;74.48;101589.53;5029572;28;20037;-57
2022/03/12 09:00:19;;;;;;;10.70;6.78;;;;;;;9.75;73.38;101588.16;5030981;28;20029;-57
2022/03/12 09:02:46;;;;;;;11.13;6.00;;;;;;;9.80;72.25;101596.53;5023315;28;20397;-57
2022/03/12 09:05:13;;;;;;;10.70;5.65;;;;;;;9.90;71.44;101582.44;5029304;28;20033;-58
2022/03/12 09:07:39;;;;;;;10.23;5.60;;;;;;;9.92;71.23;101583.97;5031146;28;20102;-57
2022/03/12 09:10:05;;;;;;;12.65;6.20;;;;;;;10.00;71.49;101583.28;5027931;28;20069;-57
2022/03/12 09:12:31;;;;;;;10.10;5.85;;;;;;;10.06;71.32;101585.38;5031266;28;20075;-58
2022/03/12 09:14:57;;;;;;;9.38;5.45;;;;;;;10.13;70.63;101590.13;5029731;28;20029;-58
2022/03/12 09:17:22;;;;;;;11.25;5.47;;;;;;;10.20;70.30;101585.91;5030612;28;20095;-57
2022/03/12 09:19:47;;;;;;;9.95;5.80;;;;;;;10.25;70.35;101594.28;5030817;28;20080;-57
2022/03/12 09:22:13;;;;;;;11.90;5.22;;;;;;;10.27;69.41;101587.03;5028805;28;20086;-58
2022/03/12 09:24:40;;;;;;;11.93;5.50;;;;;;;10.30;70.25;101597.38;5029275;28;20045;-58
2022/03/12 09:27:06;;;;;;;10.93;5.30;;;;;;;10.33;69.32;101597.09;5030637;28;20044;-57
2022/03/12 09:29:32;;;;;;;10.65;4.93;;;;;;;10.39;68.21;101594.84;5030987;28;20033;-57
2022/03/12 09:31:58;;;;;;;12.93;5.35;;;;;;;10.36;67.42;101596.81;5030382;28;20395;-57
2022/03/12 09:34:23;;;;;;;9.57;4.80;;;;;;;10.44;67.62;101603.22;5029864;28;20021;-58
2022/03/12 09:36:49;;;;;;;13.00;4.70;;;;;;;10.52;67.54;101598.06;5027259;28;20036;-58
2022/03/12 09:39:14;;;;;;;7.05;4.32;;;;;;;10.57;66.38;101598.47;5024513;28;20464;-56
2022/03/12 09:41:40;;;;;;;7.07;4.18;;;;;;;10.62;65.63;101596.22;5029121;28;20148;-57
2022/03/12 09:44:06;;;;;;;7.28;4.03;;;;;;;10.68;65.08;101599.28;5030879;28;20032;-56
2022/03/12 09:46:32;;;;;;;11.65;3.85;;;;;;;10.74;63.11;101598.72;5030884;28;20034;-58
2022/03/12 09:48:58;;;;;;;7.55;3.45;;;;;;;10.76;62.98;101602.91;5031689;28;20037;-56
2022/03/12 09:51:25;;;;;;;8.23;3.90;;;;;;;10.76;62.95;101599.41;5031467;28;20036;-55
2022/03/12 09:53:51;;;;;;;9.32;3.72;;;;;;;10.79;62.74;101590.31;5030581;28;20483;-56
2022/03/12 09:56:16;;;;;;;11.30;3.70;;;;;;;10.79;62.64;101595.63;5029901;28;20033;-56
2022/03/12 09:58:42;;;;;;;9.05;3.97;;;;;;;10.79;62.76;101604.41;5021829;28;20026;-56
2022/03/12 10:01:10;;;;;;;9.98;3.50;;;;;;;10.75;63.55;101600.38;5026312;28;20034;-56
2022/03/12 10:03:37;;;;;;;13.18;3.60;;;;;;;10.83;63.33;101608.47;5029409;28;20112;-56
2022/03/12 10:06:03;;;;;;;11.35;3.80;;;;;;;10.92;64.24;101605.91;5030875;28;20454;-56
2022/03/12 10:08:28;;;;;;;10.88;4.15;;;;;;;10.98;63.03;101615.97;5030291;28;20099;-56
2022/03/12 10:10:54;;;;;;;11.40;3.90;;;;;;;11.05;62.42;101610.91;5029612;28;20116;-55
2022/03/12 10:13:19;;;;;;;9.25;3.78;;;;;;;11.10;61.95;101620.09;5030093;28;20040;-55
2022/03/12 10:15:45;;;;;;;8.57;3.85;;;;;;;11.10;62.53;101622.75;5026961;28;20083;-55
2022/03/12 10:18:10;;;;;;;10.35;3.60;;;;;;;11.12;61.14;101612.00;5029079;28;20038;-56
2022/03/12 10:20:37;;;;;;;7.63;3.50;;;;;;;11.10;60.21;101617.44;5030593;28;20029;-56
2022/03/12 10:23:02;;;;;;;7.72;3.50;;;;;;;11.07;61.74;101619.56;5030992;28;20052;-56
2022/03/12 10:25:28;;;;;;;9.60;3.25;;;;;;;11.14;61.17;101621.50;5029261;28;20372;-56
2022/03/12 10:27:53;;;;;;;11.98;3.30;;;;;;;11.19;60.66;101622.88;5029590;28;20065;-57
2022/03/12 10:30:19;;;;;;;6.43;3.30;;;;;;;11.15;61.05;101617.84;5027796;28;20033;-55
2022/03/12 10:32:47;;;;;;;9.05;3.47;;;;;;;11.14;61.03;101608.22;5012604;28;20085;-57
2022/03/12 10:35:18;;;;;;;10.95;3.53;;;;;;;11.13;60.63;101603.03;5028284;28;20127;-57
2022/03/12 10:37:44;;;;;;;10.45;3.28;;;;;;;11.22;60.69;101604.84;5028012;28;20036;-56
2022/03/12 10:40:22;;;;;;;12.95;3.45;;;;;;;11.29;60.43;101618.34;5029462;28;20104;-57
2022/03/12 10:42:51;;;;;;;10.73;3.60;;;;;;;11.30;59.81;101617.38;5028810;28;20534;-56
2022/03/12 10:45:22;;;;;;;7.05;2.97;;;;;;;11.36;59.15;101623.91;5031120;28;20029;-57
2022/03/12 10:47:50;;;;;;;7.05;3.10;;;;;;;11.42;58.84;101597.63;5035068;28;20483;-56
2022/03/12 10:50:18;;;;;;;10.80;3.47;;;;;;;11.56;59.24;101619.34;5032770;28;20029;-57
2022/03/12 10:52:50;;;;;;;9.23;3.45;;;;;;;11.65;59.67;101613.09;5034630;28;20017;-57
2022/03/12 10:55:22;;;;;;;8.98;3.40;;;;;;;11.70;58.90;101616.16;5031384;28;20080;-56
2022/03/12 10:58:01;;;;;;;10.60;3.38;;;;;;;11.85;58.53;101613.00;5028296;28;20076;-58
2022/03/12 11:00:31;;;;;;;8.30;3.22;;;;;;;11.87;57.75;101603.03;5032910;28;20483;-56
2022/03/12 11:03:01;;;;;;;12.63;3.28;;;;;;;11.98;57.61;101602.81;5030333;28;20040;-57
2022/03/12 11:05:29;;;;;;;8.25;3.10;;;;;;;12.07;57.43;101611.75;5024434;28;20037;-56
2022/03/12 11:08:17;;;;;;;9.23;3.33;;;;;;;12.14;57.87;101606.63;5020652;28;20144;-57
2022/03/12 11:10:56;;;;;;;11.93;3.25;;;;;;;12.25;56.79;101608.25;5022142;28;20064;-57
2022/03/12 11:13:38;;;;;;;10.65;3.45;;;;;;;12.23;57.08;101613.69;5024936;28;20021;-57
2022/03/12 11:16:12;;;;;;;6.53;2.80;;;;;;;12.28;56.43;101615.06;5025359;28;20032;-56
2022/03/12 11:18:38;;;;;;;9.68;2.70;;;;;;;12.34;56.04;101611.81;5023610;28;20090;-56
2022/03/12 11:21:03;;;;;;;9.27;3.10;;;;;;;12.31;54.70;101607.63;5022291;28;20358;-56